Time;durP1;ratioP1;P1;durP2;ratioP2;P2;SDS_P1;SDS_P2;PMS_P1;PMS_P2;Temp;Humidity;BMP_temperature;BMP_pressure;BME280_temperature;BME280_humidity;BME280_pressure;Samples;Min_cycle;Max_cycle;Signal;HPM_P1;HPM_P2
2023/04/10 00:00:31;;;;;;;40.88;18.55;;;3.10;99.90;;;;;;5071852;28;20394;-53
2023/04/10 00:03:00;;;;;;;32.22;16.27;;;3.00;99.90;;;;;;5072857;28;20575;-52
2023/04/10 00:05:26;;;;;;;43.03;20.08;;;3.00;99.90;;;;;;5073923;28;20094;-56
2023/04/10 00:07:52;;;;;;;33.20;16.77;;;3.00;99.90;;;;;;5085532;28;20035;-57
2023/04/10 00:10:18;;;;;;;32.50;16.95;;;3.00;99.90;;;;;;5068641;28;20145;-56
2023/04/10 00:12:43;;;;;;;38.60;17.65;;;2.90;99.90;;;;;;5083141;28;20028;-56
2023/04/10 00:15:09;;;;;;;38.03;18.90;;;2.90;99.90;;;;;;5069324;28;20024;-55
2023/04/10 00:17:35;;;;;;;27.42;14.20;;;2.90;99.90;;;;;;5085700;28;20031;-56
2023/04/10 00:20:01;;;;;;;35.92;17.42;;;2.90;99.90;;;;;;5088330;28;20035;-55
2023/04/10 00:22:26;;;;;;;32.50;17.10;;;2.90;99.90;;;;;;5067869;28;20050;-54
2023/04/10 00:24:52;;;;;;;37.13;17.00;;;2.90;99.90;;;;;;5088380;28;20032;-57
2023/04/10 00:27:17;;;;;;;36.28;17.13;;;2.80;99.90;;;;;;5066951;28;20044;-52
2023/04/10 00:29:43;;;;;;;37.95;16.05;;;2.80;99.90;;;;;;5085688;28;20032;-56
2023/04/10 00:32:08;;;;;;;37.00;16.55;;;2.80;99.90;;;;;;5086985;28;20040;-56
2023/04/10 00:34:34;;;;;;;34.05;16.52;;;2.80;99.90;;;;;;5066673;28;20055;-54
2023/04/10 00:37:00;;;;;;;38.75;18.05;;;2.80;99.90;;;;;;5087323;28;20405;-56
2023/04/10 00:39:25;;;;;;;36.75;17.08;;;2.80;99.90;;;;;;5066192;28;20029;-56
2023/04/10 00:41:50;;;;;;;30.90;15.55;;;2.70;99.90;;;;;;5082152;28;20050;-54
2023/04/10 00:44:16;;;;;;;34.72;16.48;;;2.70;99.90;;;;;;5068483;28;20090;-56
2023/04/10 00:46:42;;;;;;;37.03;17.95;;;2.70;99.90;;;;;;5074009;28;20706;-56
2023/04/10 00:49:08;;;;;;;40.30;18.33;;;2.70;99.90;;;;;;5070179;28;20040;-56
2023/04/10 00:51:35;;;;;;;34.15;18.20;;;2.70;99.90;;;;;;5087592;28;20408;-55
2023/04/10 00:54:01;;;;;;;29.85;15.38;;;2.60;99.90;;;;;;5078078;28;20024;-54
2023/04/10 00:56:28;;;;;;;30.08;15.40;;;2.60;99.90;;;;;;5068876;28;20028;-56
2023/04/10 00:58:54;;;;;;;31.80;15.70;;;2.60;99.90;;;;;;5087548;28;20540;-56
2023/04/10 01:01:20;;;;;;;29.65;15.30;;;2.60;99.90;;;;;;5070316;28;20036;-55
2023/04/10 01:03:45;;;;;;;29.20;14.35;;;2.60;99.90;;;;;;5087315;28;20032;-57
2023/04/10 01:06:25;;;;;;;26.02;12.95;;;2.60;99.90;;;;;;5069526;28;20039;-57
2023/04/10 01:09:13;;;;;;;29.83;14.43;;;2.50;99.90;;;;;;5070957;28;20032;-56
2023/04/10 01:11:53;;;;;;;33.30;14.48;;;2.50;99.90;;;;;;5049894;28;20060;-55
2023/04/10 01:14:55;;;;;;;29.85;14.52;;;2.50;99.90;;;;;;5079012;28;20032;-54
2023/04/10 01:17:29;;;;;;;25.25;12.32;;;2.50;99.90;;;;;;5089681;28;20136;-56
2023/04/10 01:20:19;;;;;;;30.23;13.65;;;2.40;99.90;;;;;;5049733;28;20090;-57
2023/04/10 01:23:11;;;;;;;32.63;15.27;;;2.40;99.90;;;;;;5052695;28;20033;-55
2023/04/10 01:25:42;;;;;;;30.45;14.25;;;2.40;99.90;;;;;;5089854;28;20028;-54
2023/04/10 01:28:26;;;;;;;23.10;11.93;;;2.30;99.90;;;;;;5058908;28;20040;-57
2023/04/10 01:30:58;;;;;;;25.02;12.82;;;2.30;99.90;;;;;;5069418;28;20032;-52
2023/04/10 01:33:28;;;;;;;26.33;12.05;;;2.30;99.90;;;;;;5065591;28;20454;-57
2023/04/10 01:35:58;;;;;;;26.23;12.82;;;2.20;99.90;;;;;;5049358;28;20029;-56
2023/04/10 01:38:26;;;;;;;23.00;11.32;;;2.20;99.90;;;;;;5087221;28;20114;-57
2023/04/10 01:40:53;;;;;;;26.20;12.80;;;2.20;99.90;;;;;;5069292;28;20020;-57
2023/04/10 01:43:21;;;;;;;24.98;13.05;;;2.20;99.90;;;;;;5086935;28;20059;-56
2023/04/10 01:45:50;;;;;;;29.83;13.40;;;2.10;99.90;;;;;;5089366;28;20048;-57
2023/04/10 01:48:17;;;;;;;23.20;11.80;;;2.10;99.90;;;;;;5074061;28;20682;-56
2023/04/10 01:50:44;;;;;;;29.20;13.27;;;2.10;99.90;;;;;;5088727;28;20024;-53
2023/04/10 01:53:10;;;;;;;30.83;14.10;;;2.10;99.90;;;;;;5072124;28;20028;-56
2023/04/10 01:55:37;;;;;;;27.60;13.98;;;2.10;99.90;;;;;;5087311;28;20032;-53
2023/04/10 01:58:03;;;;;;;29.27;13.98;;;2.00;99.90;;;;;;5086867;28;20032;-56
2023/04/10 02:00:29;;;;;;;27.70;13.38;;;2.00;99.90;;;;;;5068070;28;20033;-55
2023/04/10 02:02:57;;;;;;;25.20;12.05;;;2.00;99.90;;;;;;5086230;28;20047;-57
2023/04/10 02:05:28;;;;;;;25.92;11.90;;;2.00;99.90;;;;;;5072997;28;20032;-55
2023/04/10 02:08:11;;;;;;;28.27;13.25;;;2.00;99.90;;;;;;5084502;28;20027;-55
2023/04/10 02:11:01;;;;;;;26.65;12.10;;;1.90;99.90;;;;;;5048416;28;20045;-55
2023/04/10 02:13:28;;;;;;;25.33;12.50;;;1.90;99.90;;;;;;5063561;28;20096;-54
2023/04/10 02:15:56;;;;;;;26.88;12.15;;;1.90;99.90;;;;;;5068927;28;20687;-53
2023/04/10 02:18:22;;;;;;;28.17;12.15;;;1.90;99.90;;;;;;5086554;28;20032;-56
2023/04/10 02:20:48;;;;;;;25.33;11.93;;;1.90;99.90;;;;;;5088921;28;20032;-55
2023/04/10 02:23:19;;;;;;;22.13;11.55;;;1.80;99.90;;;;;;5073853;28;20031;-56
2023/04/10 02:25:44;;;;;;;24.30;12.38;;;1.80;99.90;;;;;;5088844;28;20027;-55
2023/04/10 02:28:10;;;;;;;26.02;11.85;;;1.80;99.90;;;;;;5073225;28;20097;-51
2023/04/10 02:30:36;;;;;;;24.75;12.00;;;1.70;99.90;;;;;;5088717;28;20032;-54
2023/04/10 02:33:01;;;;;;;18.55;9.98;;;1.80;99.90;;;;;;5072927;28;20573;-56
2023/04/10 02:35:28;;;;;;;25.00;12.23;;;1.80;99.90;;;;;;5088614;28;20033;-56
2023/04/10 02:37:54;;;;;;;21.88;12.15;;;1.70;99.90;;;;;;5086452;28;20442;-55
2023/04/10 02:40:20;;;;;;;26.25;12.25;;;1.70;99.90;;;;;;5088611;28;20047;-56
2023/04/10 02:42:46;;;;;;;27.17;11.88;;;1.70;99.90;;;;;;5069433;28;20519;-54
2023/04/10 02:45:11;;;;;;;23.55;10.57;;;1.70;99.90;;;;;;5088810;28;20028;-55
2023/04/10 02:47:37;;;;;;;27.95;12.63;;;1.70;99.90;;;;;;5068254;28;20115;-56
2023/04/10 02:50:02;;;;;;;19.95;10.77;;;1.60;99.90;;;;;;5088369;28;20062;-54
2023/04/10 02:52:28;;;;;;;24.42;12.30;;;1.60;99.90;;;;;;5066821;28;20090;-55
2023/04/10 02:54:53;;;;;;;23.83;10.27;;;1.60;99.90;;;;;;5087705;28;20031;-57
2023/04/10 02:57:20;;;;;;;24.75;11.80;;;1.60;99.90;;;;;;5066858;28;20104;-56
2023/04/10 02:59:49;;;;;;;22.30;11.70;;;1.60;99.90;;;;;;5087608;28;20024;-53
2023/04/10 03:02:15;;;;;;;23.27;10.80;;;1.50;99.90;;;;;;5079669;28;20115;-56
2023/04/10 03:04:41;;;;;;;22.30;11.40;;;1.50;99.90;;;;;;5072554;28;20123;-52
2023/04/10 03:07:07;;;;;;;25.63;12.57;;;1.50;99.90;;;;;;5087137;28;20031;-55
2023/04/10 03:09:32;;;;;;;24.80;12.73;;;1.50;99.90;;;;;;5070628;28;20037;-53
2023/04/10 03:11:58;;;;;;;28.75;12.70;;;1.50;99.90;;;;;;5091528;28;20039;-55
2023/04/10 03:14:23;;;;;;;18.90;10.43;;;1.40;99.90;;;;;;5070837;28;20024;-55
2023/04/10 03:16:49;;;;;;;22.42;11.15;;;1.40;99.90;;;;;;5089519;28;20111;-54
2023/04/10 03:19:15;;;;;;;22.55;11.10;;;1.40;99.90;;;;;;5092348;28;20099;-54
2023/04/10 03:21:41;;;;;;;24.05;12.10;;;1.40;99.90;;;;;;5075119;28;20012;-57
2023/04/10 03:24:06;;;;;;;21.45;12.15;;;1.40;99.90;;;;;;5092445;28;20034;-56
2023/04/10 03:26:32;;;;;;;25.10;13.15;;;1.30;99.90;;;;;;5074346;28;20028;-58
2023/04/10 03:28:57;;;;;;;23.05;11.18;;;1.30;99.90;;;;;;5092155;28;20208;-56
2023/04/10 03:31:22;;;;;;;22.55;11.52;;;1.30;99.90;;;;;;5072774;28;20032;-57
2023/04/10 03:33:48;;;;;;;21.25;10.60;;;1.30;99.90;;;;;;5079118;28;20086;-55
2023/04/10 03:36:14;;;;;;;22.83;11.25;;;1.30;99.90;;;;;;5089225;28;20487;-57
2023/04/10 03:38:39;;;;;;;22.58;10.05;;;1.20;99.90;;;;;;5092116;28;20024;-56
2023/04/10 03:41:05;;;;;;;24.48;11.50;;;1.20;99.90;;;;;;5070284;28;20032;-56
2023/04/10 03:43:31;;;;;;;23.63;12.10;;;1.20;99.90;;;;;;5051724;28;20107;-52
2023/04/10 03:45:56;;;;;;;14.07;7.47;;;1.20;99.90;;;;;;5090355;28;20036;-55
2023/04/10 03:48:22;;;;;;;25.05;10.95;;;1.20;99.90;;;;;;5070242;28;20028;-55
2023/04/10 03:50:47;;;;;;;27.98;11.88;;;1.10;99.90;;;;;;5090933;28;20048;-54
2023/04/10 03:53:13;;;;;;;26.13;12.18;;;1.10;99.90;;;;;;5070225;28;20099;-55
2023/04/10 03:55:38;;;;;;;25.55;11.55;;;1.10;99.90;;;;;;5091049;28;20035;-55
2023/04/10 03:58:07;;;;;;;29.88;12.35;;;1.00;99.90;;;;;;5070032;28;20497;-54
2023/04/10 04:00:32;;;;;;;19.42;10.70;;;1.00;99.90;;;;;;5090818;28;20040;-55
2023/04/10 04:02:59;;;;;;;19.40;10.07;;;1.00;99.90;;;;;;5070082;28;20044;-54
2023/04/10 04:05:25;;;;;;;20.38;10.57;;;1.00;99.90;;;;;;5076830;28;20024;-56
2023/04/10 04:07:51;;;;;;;20.48;9.95;;;1.00;99.90;;;;;;5082066;28;20023;-54
2023/04/10 04:10:16;;;;;;;23.23;11.10;;;0.90;99.90;;;;;;5091371;28;20028;-55
2023/04/10 04:12:42;;;;;;;24.48;10.75;;;0.90;99.90;;;;;;5071331;28;20039;-56
2023/04/10 04:15:07;;;;;;;22.00;9.23;;;0.90;99.90;;;;;;5090924;28;20062;-56
2023/04/10 04:17:33;;;;;;;13.65;7.68;;;0.90;99.90;;;;;;5070271;28;20013;-55
2023/04/10 04:19:58;;;;;;;23.35;10.82;;;0.90;99.90;;;;;;5091229;28;20032;-55
2023/04/10 04:22:24;;;;;;;24.70;12.13;;;0.90;99.90;;;;;;5071337;28;20417;-57
2023/04/10 04:24:49;;;;;;;26.55;13.95;;;0.90;99.90;;;;;;5088794;28;20028;-53
2023/04/10 04:27:15;;;;;;;22.00;10.20;;;0.90;99.90;;;;;;5071428;28;20040;-55
2023/04/10 04:29:40;;;;;;;20.20;10.05;;;0.90;99.90;;;;;;5088431;28;20384;-57
2023/04/10 04:32:06;;;;;;;21.60;10.27;;;1.00;99.90;;;;;;5090819;28;20554;-55
2023/04/10 04:34:31;;;;;;;19.77;10.30;;;1.00;99.90;;;;;;5069358;28;20128;-56
2023/04/10 04:36:57;;;;;;;19.48;9.65;;;1.00;99.90;;;;;;5090139;28;20040;-55
2023/04/10 04:39:22;;;;;;;21.40;11.02;;;1.10;99.90;;;;;;5069481;28;20032;-55
2023/04/10 04:41:48;;;;;;;21.65;10.63;;;1.10;99.90;;;;;;5090105;28;20032;-56
2023/04/10 04:44:13;;;;;;;23.38;10.00;;;1.20;99.90;;;;;;5069167;28;20020;-55
2023/04/10 04:46:39;;;;;;;21.27;10.57;;;1.20;99.90;;;;;;5089857;28;20028;-56
2023/04/10 04:49:04;;;;;;;18.73;8.90;;;1.30;99.90;;;;;;5068990;28;20063;-54
2023/04/10 04:51:30;;;;;;;21.90;10.13;;;1.30;99.90;;;;;;5089793;28;20123;-56
2023/04/10 04:53:55;;;;;;;16.73;8.85;;;1.40;99.90;;;;;;5068890;28;20024;-54
2023/04/10 04:56:21;;;;;;;23.42;9.80;;;1.50;99.90;;;;;;5089648;28;20085;-54
2023/04/10 04:58:46;;;;;;;19.60;9.57;;;1.60;99.90;;;;;;5079847;28;20040;-56
2023/04/10 05:01:12;;;;;;;19.42;9.77;;;1.80;99.90;;;;;;5068642;28;20063;-57
2023/04/10 05:03:37;;;;;;;20.27;9.65;;;1.90;99.90;;;;;;5089553;28;20068;-55
2023/04/10 05:06:03;;;;;;;21.48;10.18;;;2.00;99.90;;;;;;5065301;28;20031;-55
2023/04/10 05:08:28;;;;;;;18.23;9.65;;;2.20;99.90;;;;;;5078852;28;20032;-58
2023/04/10 05:10:54;;;;;;;21.05;10.50;;;2.40;99.90;;;;;;5088097;28;20123;-54
2023/04/10 05:13:20;;;;;;;18.65;9.98;;;2.50;99.90;;;;;;5075951;28;20028;-57
2023/04/10 05:15:45;;;;;;;21.48;9.15;;;2.90;99.90;;;;;;5090317;28;20035;-57
2023/04/10 05:18:12;;;;;;;18.20;9.65;;;3.50;99.90;;;;;;5074656;28;20743;-57
2023/04/10 05:20:38;;;;;;;19.08;9.82;;;3.80;99.90;;;;;;5090236;28;20107;-57
2023/04/10 05:23:04;;;;;;;17.65;9.93;;;4.30;99.90;;;;;;5075965;28;20104;-57
2023/04/10 05:25:30;;;;;;;14.65;8.93;;;5.00;99.90;;;;;;5069049;28;20035;-57
2023/04/10 05:27:56;;;;;;;13.95;8.27;;;5.70;99.90;;;;;;5087119;28;20229;-57
2023/04/10 05:30:21;;;;;;;13.82;8.50;;;6.40;99.90;;;;;;5089816;28;20063;-57
2023/04/10 05:32:47;;;;;;;14.27;9.15;;;7.10;99.90;;;;;;5073445;28;20032;-58
2023/04/10 05:35:12;;;;;;;14.63;8.98;;;7.70;97.90;;;;;;5089815;28;20063;-58
2023/04/10 05:37:38;;;;;;;15.80;9.02;;;8.30;97.00;;;;;;5072207;28;20039;-58
2023/04/10 05:40:04;;;;;;;15.73;9.60;;;8.80;92.50;;;;;;5089723;28;20024;-58
2023/04/10 05:42:29;;;;;;;12.75;8.75;;;9.10;91.70;;;;;;5071028;28;20452;-58
2023/04/10 05:44:55;;;;;;;15.18;9.73;;;9.50;91.90;;;;;;5089865;28;20052;-58
2023/04/10 05:47:21;;;;;;;13.93;9.02;;;10.10;90.30;;;;;;5069802;28;20131;-58
2023/04/10 05:49:46;;;;;;;11.93;7.93;;;10.40;88.00;;;;;;5089629;28;20067;-59
2023/04/10 05:52:11;;;;;;;10.32;8.02;;;10.70;83.30;;;;;;5068465;28;20052;-60
2023/04/10 05:54:37;;;;;;;12.38;8.27;;;11.30;81.70;;;;;;5089596;28;20593;-56
2023/04/10 05:57:02;;;;;;;11.70;8.00;;;11.90;83.50;;;;;;5072893;28;20059;-59
2023/04/10 05:59:28;;;;;;;12.57;8.80;;;12.50;78.30;;;;;;5065414;28;20024;-61
2023/04/10 06:01:55;;;;;;;11.10;7.85;;;13.10;73.70;;;;;;5073097;28;20024;-63
2023/04/10 06:04:21;;;;;;;11.35;7.03;;;13.20;66.00;;;;;;5066286;28;20028;-61
2023/04/10 06:06:46;;;;;;;13.70;7.82;;;13.40;70.90;;;;;;5067239;28;20081;-60
2023/04/10 06:09:12;;;;;;;11.68;7.22;;;13.50;69.10;;;;;;5071342;28;20474;-61
2023/04/10 06:11:37;;;;;;;8.70;6.30;;;13.70;69.80;;;;;;5071688;28;20047;-62
2023/04/10 06:14:03;;;;;;;9.60;6.72;;;14.00;69.00;;;;;;5078095;28;20036;-61
2023/04/10 06:16:28;;;;;;;10.25;6.85;;;14.40;68.80;;;;;;5065135;28;20028;-62
2023/04/10 06:18:54;;;;;;;9.13;6.28;;;14.70;66.80;;;;;;5068791;28;20027;-62
2023/04/10 06:21:19;;;;;;;9.68;5.97;;;15.00;65.10;;;;;;5065703;28;20085;-62
2023/04/10 06:23:45;;;;;;;10.77;7.43;;;15.30;61.60;;;;;;5074202;28;20544;-62
2023/04/10 06:26:11;;;;;;;9.30;6.18;;;15.60;50.20;;;;;;5082940;28;20104;-62
2023/04/10 06:28:37;;;;;;;8.13;5.70;;;15.90;51.20;;;;;;5076095;28;20401;-62
2023/04/10 06:31:03;;;;;;;9.07;6.00;;;16.30;53.80;;;;;;5075045;28;20465;-62
2023/04/10 06:33:28;;;;;;;8.98;5.88;;;16.40;51.90;;;;;;5075302;28;20052;-62
2023/04/10 06:35:54;;;;;;;9.35;6.20;;;16.40;50.30;;;;;;5079137;28;20031;-61
2023/04/10 06:38:20;;;;;;;7.10;5.05;;;16.40;41.80;;;;;;5078132;28;20684;-62
2023/04/10 06:40:45;;;;;;;11.32;6.18;;;16.80;48.20;;;;;;5069500;28;20029;-62
2023/04/10 06:43:11;;;;;;;8.05;5.57;;;17.20;40.90;;;;;;5067421;28;20097;-62
2023/04/10 06:45:37;;;;;;;7.10;4.72;;;17.40;45.80;;;;;;5071498;28;20140;-62
2023/04/10 06:48:03;;;;;;;9.65;5.60;;;17.90;46.20;;;;;;5082492;28;20034;-62
2023/04/10 06:50:28;;;;;;;9.07;5.50;;;18.40;42.20;;;;;;5071040;28;20646;-61
2023/04/10 06:52:55;;;;;;;6.32;5.40;;;18.90;41.10;;;;;;5076491;28;20040;-61
2023/04/10 06:55:20;;;;;;;6.20;4.75;;;19.40;39.60;;;;;;5070921;28;20071;-62
2023/04/10 06:57:46;;;;;;;9.27;5.72;;;20.00;38.10;;;;;;5069620;28;20052;-61
2023/04/10 07:00:12;;;;;;;10.07;6.18;;;20.40;35.20;;;;;;5072816;28;20034;-62
2023/04/10 07:02:37;;;;;;;8.93;5.18;;;20.60;30.60;;;;;;5068958;28;20405;-63
2023/04/10 07:05:03;;;;;;;7.65;5.85;;;20.70;30.20;;;;;;5066108;28;20037;-61
2023/04/10 07:07:29;;;;;;;8.25;5.47;;;21.10;30.50;;;;;;5073214;28;20125;-63
2023/04/10 07:09:56;;;;;;;9.50;5.20;;;21.80;27.70;;;;;;5083769;28;20055;-60
2023/04/10 07:12:22;;;;;;;9.88;5.80;;;22.00;25.70;;;;;;5074297;28;20016;-60
2023/04/10 07:14:47;;;;;;;9.05;6.25;;;22.20;25.50;;;;;;5080422;28;20411;-60
2023/04/10 07:17:13;;;;;;;9.43;6.05;;;22.50;25.50;;;;;;5071270;28;20024;-60
2023/04/10 07:19:38;;;;;;;10.65;6.70;;;22.40;24.20;;;;;;5074015;28;20108;-66
2023/04/10 07:22:04;;;;;;;8.88;6.55;;;22.10;23.60;;;;;;5070813;28;20404;-63
2023/04/10 07:24:30;;;;;;;8.25;6.72;;;22.40;23.60;;;;;;5066507;28;20035;-61
2023/04/10 07:26:56;;;;;;;10.57;7.22;;;22.50;22.10;;;;;;5069286;28;20609;-61
2023/04/10 07:29:22;;;;;;;13.48;9.35;;;22.70;22.30;;;;;;5078641;28;20028;-60
2023/04/10 07:31:48;;;;;;;12.82;8.40;;;22.90;20.30;;;;;;5079981;28;20544;-60
2023/04/10 07:34:13;;;;;;;9.63;7.68;;;23.30;20.20;;;;;;5083414;28;20123;-60
2023/04/10 07:36:39;;;;;;;11.80;8.30;;;23.60;19.90;;;;;;5066519;28;20492;-60
2023/04/10 07:39:04;;;;;;;11.23;8.35;;;23.70;19.60;;;;;;5082091;28;20030;-60
2023/04/10 07:41:30;;;;;;;13.18;9.48;;;23.80;19.80;;;;;;5066531;28;20671;-60
2023/04/10 07:43:55;;;;;;;11.40;9.00;;;23.70;17.00;;;;;;5080017;28;20545;-62
2023/04/10 07:46:21;;;;;;;12.07;8.52;;;23.60;17.50;;;;;;5081018;28;20028;-61
2023/04/10 07:48:47;;;;;;;12.38;9.55;;;23.60;17.30;;;;;;5074221;28;20074;-60
2023/04/10 07:51:13;;;;;;;11.30;8.43;;;22.70;16.60;;;;;;5075659;28;20032;-60
2023/04/10 07:53:38;;;;;;;11.30;8.20;;;22.20;15.30;;;;;;5080385;28;20051;-61
2023/04/10 07:56:04;;;;;;;10.05;7.60;;;21.50;17.80;;;;;;5090160;28;20040;-62
2023/04/10 07:58:30;;;;;;;8.93;7.10;;;21.40;18.60;;;;;;5074018;28;20024;-61
2023/04/10 08:00:56;;;;;;;15.25;10.15;;;21.70;19.10;;;;;;5072189;28;20056;-56
2023/04/10 08:03:22;;;;;;;13.88;9.80;;;21.90;16.10;;;;;;5079417;28;20052;-57
2023/04/10 08:05:48;;;;;;;12.07;9.13;;;21.40;16.30;;;;;;5084576;28;20392;-56
2023/04/10 08:08:15;;;;;;;11.88;7.88;;;20.70;18.30;;;;;;5075129;28;20038;-58
2023/04/10 08:10:41;;;;;;;11.07;8.30;;;20.80;19.10;;;;;;5090537;28;20453;-56
2023/04/10 08:13:07;;;;;;;10.40;8.13;;;21.10;19.20;;;;;;5088408;28;20085;-58
2023/04/10 08:15:32;;;;;;;13.32;9.38;;;21.10;15.90;;;;;;5090672;28;20016;-57
2023/04/10 08:17:58;;;;;;;10.70;8.52;;;20.60;19.60;;;;;;5073002;28;20403;-59
2023/04/10 08:20:24;;;;;;;12.95;9.77;;;20.60;20.20;;;;;;5090446;28;20444;-57
2023/04/10 08:22:49;;;;;;;12.65;8.05;;;19.80;19.10;;;;;;5071760;28;20020;-59
2023/04/10 08:25:15;;;;;;;9.00;6.45;;;19.20;19.80;;;;;;5090328;28;20035;-58
2023/04/10 08:27:40;;;;;;;10.18;6.57;;;19.30;22.70;;;;;;5070482;28;20028;-57
2023/04/10 08:30:06;;;;;;;11.70;7.82;;;19.60;23.20;;;;;;5090314;28;20032;-57
2023/04/10 08:32:32;;;;;;;7.80;5.72;;;20.10;21.40;;;;;;5070200;28;20035;-58
2023/04/10 08:34:57;;;;;;;10.95;8.32;;;20.30;22.20;;;;;;5090183;28;20095;-57
2023/04/10 08:37:25;;;;;;;8.68;6.63;;;20.20;18.40;;;;;;5089615;28;20028;-57
2023/04/10 08:39:51;;;;;;;12.27;8.73;;;20.10;19.80;;;;;;5088082;28;20029;-55
2023/04/10 08:42:17;;;;;;;8.30;6.50;;;19.00;21.10;;;;;;5070305;28;20079;-57
2023/04/10 08:44:42;;;;;;;10.80;7.70;;;18.90;22.20;;;;;;5087365;28;20059;-57
2023/04/10 08:47:09;;;;;;;9.10;6.95;;;18.90;19.50;;;;;;5089850;28;20040;-57
2023/04/10 08:49:47;;;;;;;10.65;7.90;;;18.60;22.30;;;;;;5068205;28;20024;-57
2023/04/10 08:52:21;;;;;;;11.20;6.28;;;18.60;21.50;;;;;;5049631;28;20033;-57
2023/04/10 08:54:49;;;;;;;11.30;7.65;;;19.10;21.30;;;;;;5086433;28;20480;-57
2023/04/10 08:57:19;;;;;;;9.15;6.60;;;18.80;21.00;;;;;;5089155;28;20106;-57
2023/04/10 08:59:46;;;;;;;9.05;6.50;;;18.80;22.40;;;;;;5067160;28;20037;-56
2023/04/10 09:02:12;;;;;;;11.90;6.10;;;19.20;22.20;;;;;;5089107;28;20036;-55
2023/04/10 09:04:37;;;;;;;8.63;6.35;;;19.60;21.20;;;;;;5068733;28;20767;-57
2023/04/10 09:07:03;;;;;;;8.68;6.28;;;19.80;20.10;;;;;;5084933;28;20036;-57
2023/04/10 09:09:31;;;;;;;9.27;6.70;;;20.10;19.90;;;;;;5066410;28;20114;-57
2023/04/10 09:11:59;;;;;;;9.55;6.72;;;20.10;19.00;;;;;;5089095;28;20039;-55
2023/04/10 09:14:31;;;;;;;8.93;6.30;;;19.90;19.00;;;;;;5067543;28;20504;-56
2023/04/10 09:17:26;;;;;;;12.30;8.63;;;20.10;19.50;;;;;;5049251;28;20528;-57
2023/04/10 09:19:54;;;;;;;9.48;7.05;;;19.90;16.30;;;;;;5069797;28;20411;-56
2023/04/10 09:22:31;;;;;;;10.15;6.07;;;19.80;17.60;;;;;;5089161;28;20093;-57
2023/04/10 09:24:58;;;;;;;10.80;6.57;;;19.90;16.80;;;;;;5089375;28;20024;-55
2023/04/10 09:27:32;;;;;;;8.55;6.22;;;19.60;18.20;;;;;;5069286;28;20028;-56
2023/04/10 09:29:58;;;;;;;9.98;6.72;;;19.60;17.80;;;;;;5049016;28;20029;-56
2023/04/10 09:32:41;;;;;;;9.30;6.03;;;19.60;17.70;;;;;;5086578;28;20034;-57
2023/04/10 09:35:08;;;;;;;7.93;5.75;;;19.60;16.30;;;;;;5048900;28;20041;-56
2023/04/10 09:37:35;;;;;;;9.20;5.95;;;19.70;17.40;;;;;;5085952;28;20047;-57
2023/04/10 09:40:01;;;;;;;9.48;6.55;;;19.60;16.90;;;;;;5088967;28;20028;-56
2023/04/10 09:42:31;;;;;;;11.07;7.00;;;19.60;17.00;;;;;;5068797;28;20060;-54
2023/04/10 09:44:58;;;;;;;9.38;6.93;;;19.60;16.30;;;;;;5068566;28;20025;-56
2023/04/10 09:47:24;;;;;;;9.82;7.82;;;18.80;17.50;;;;;;5088177;28;20024;-56
2023/04/10 09:49:55;;;;;;;8.02;6.38;;;18.50;18.90;;;;;;5086810;28;20728;-56
2023/04/10 09:52:25;;;;;;;10.43;6.47;;;18.60;19.50;;;;;;5048522;28;20033;-55
2023/04/10 09:54:53;;;;;;;10.48;7.05;;;18.70;18.40;;;;;;5083971;28;20110;-56
2023/04/10 09:57:20;;;;;;;9.02;7.28;;;18.70;18.50;;;;;;5067865;28;20530;-56
2023/04/10 09:59:49;;;;;;;9.52;7.75;;;18.60;18.80;;;;;;5088529;28;20518;-54
2023/04/10 10:02:20;;;;;;;13.00;8.30;;;18.40;19.30;;;;;;5067504;28;20024;-57
2023/04/10 10:04:47;;;;;;;11.68;8.30;;;18.30;20.50;;;;;;5052296;28;20112;-56
2023/04/10 10:07:17;;;;;;;14.07;8.27;;;18.20;20.80;;;;;;5084046;28;20496;-57
2023/04/10 10:09:44;;;;;;;13.55;9.30;;;18.30;21.30;;;;;;5087658;28;20059;-57
2023/04/10 10:12:11;;;;;;;13.23;8.98;;;17.80;21.60;;;;;;5088858;28;20081;-56
2023/04/10 10:14:47;;;;;;;13.70;9.02;;;17.60;22.60;;;;;;5067766;28;20024;-55
2023/04/10 10:17:15;;;;;;;16.23;9.63;;;17.50;23.00;;;;;;5049389;28;20036;-56
2023/04/10 10:19:50;;;;;;;12.35;7.93;;;17.40;23.00;;;;;;5086781;28;20064;-57
2023/04/10 10:22:16;;;;;;;14.38;8.70;;;17.40;23.00;;;;;;5048014;28;20041;-58
2023/04/10 10:24:46;;;;;;;11.55;8.07;;;17.40;23.40;;;;;;5085027;28;20035;-55
2023/04/10 10:27:15;;;;;;;15.07;9.68;;;17.50;23.60;;;;;;5089266;28;20047;-57
2023/04/10 10:29:42;;;;;;;18.10;11.10;;;17.30;24.60;;;;;;5067311;28;20031;-56
2023/04/10 10:32:10;;;;;;;15.63;9.32;;;16.40;26.60;;;;;;5088779;28;20036;-57
2023/04/10 10:34:36;;;;;;;13.75;8.93;;;16.40;27.30;;;;;;5067456;28;20501;-57
2023/04/10 10:37:04;;;;;;;13.00;8.77;;;16.60;26.80;;;;;;5088531;28;20420;-55
2023/04/10 10:40:07;;;;;;;12.88;9.07;;;16.70;26.50;;;;;;5067344;28;20036;-56
2023/04/10 10:43:01;;;;;;;17.08;9.27;;;16.70;27.10;;;;;;5048720;28;20029;-56
2023/04/10 10:46:00;;;;;;;10.80;7.13;;;16.60;26.70;;;;;;5083500;28;20085;-53
2023/04/10 10:48:26;;;;;;;9.95;7.38;;;16.60;28.50;;;;;;5063658;28;20392;-56
2023/04/10 10:50:57;;;;;;;14.88;9.10;;;16.50;26.30;;;;;;5068067;28;20028;-57
2023/04/10 10:53:37;;;;;;;12.32;8.50;;;16.30;27.80;;;;;;5086701;28;20028;-56
2023/04/10 10:56:18;;;;;;;13.52;8.25;;;16.10;28.80;;;;;;5069082;28;20040;-56
2023/04/10 10:58:56;;;;;;;11.00;7.88;;;15.80;29.60;;;;;;5086305;28;20118;-57
2023/04/10 11:01:22;;;;;;;9.85;7.13;;;15.90;30.00;;;;;;5068794;28;20098;-56
2023/04/10 11:03:48;;;;;;;13.48;7.38;;;16.00;29.80;;;;;;5086393;28;20024;-56
2023/04/10 11:06:16;;;;;;;8.85;6.60;;;16.10;29.30;;;;;;5085626;28;20032;-56
2023/04/10 11:08:46;;;;;;;13.63;7.90;;;16.20;30.50;;;;;;5077117;28;20036;-56
2023/04/10 11:11:22;;;;;;;11.73;7.13;;;16.00;30.20;;;;;;5069012;28;20037;-55
2023/04/10 11:13:51;;;;;;;;;;;15.90;31.30;;;;;;5087370;28;20561;-55
2023/04/10 11:16:17;;;;;;;14.40;8.20;;;15.90;31.90;;;;;;5069346;28;19908;-56
2023/04/10 11:18:46;;;;;;;15.90;8.68;;;15.90;32.40;;;;;;5086258;28;20040;-57
2023/04/10 11:21:22;;;;;;;9.48;7.15;;;15.90;31.70;;;;;;5069335;28;20029;-56
2023/04/10 11:23:56;;;;;;;12.07;7.53;;;16.00;29.90;;;;;;5069005;28;20678;-57
2023/04/10 11:26:43;;;;;;;9.73;6.43;;;16.00;31.00;;;;;;5052744;28;20079;-56
2023/04/10 11:29:17;;;;;;;15.40;8.10;;;16.10;31.90;;;;;;5078636;28;20024;-57
2023/04/10 11:31:44;;;;;;;13.45;9.13;;;16.10;30.40;;;;;;5092637;28;20077;-55
2023/04/10 11:34:10;;;;;;;15.32;9.60;;;15.90;32.00;;;;;;5070527;28;20413;-57
2023/04/10 11:36:40;;;;;;;17.52;9.70;;;15.60;34.00;;;;;;5091971;28;20028;-55
2023/04/10 11:39:20;;;;;;;16.55;10.57;;;15.50;36.70;;;;;;5070560;28;20083;-56
2023/04/10 11:41:48;;;;;;;17.48;10.98;;;15.40;36.50;;;;;;5052230;28;20029;-55
2023/04/10 11:44:25;;;;;;;18.92;11.13;;;15.30;36.70;;;;;;5089745;28;20036;-55
2023/04/10 11:46:51;;;;;;;15.05;9.70;;;15.20;38.00;;;;;;5052015;28;20037;-57
2023/04/10 11:49:19;;;;;;;16.30;10.13;;;15.20;39.80;;;;;;5089253;28;20051;-56
2023/04/10 11:51:46;;;;;;;18.80;11.05;;;15.20;38.70;;;;;;5092156;28;20077;-56
2023/04/10 11:54:17;;;;;;;16.23;10.50;;;15.20;40.50;;;;;;5070339;28;20101;-57
2023/04/10 11:57:08;;;;;;;16.02;9.23;;;15.30;40.50;;;;;;5051973;28;20087;-56
2023/04/10 11:59:34;;;;;;;18.27;11.45;;;15.50;40.90;;;;;;5084993;28;20111;-55
2023/04/10 12:02:08;;;;;;;18.50;10.45;;;15.50;40.80;;;;;;5092025;28;20028;-52
2023/04/10 12:04:34;;;;;;;20.02;11.88;;;15.30;40.80;;;;;;5070157;28;20033;-52
2023/04/10 12:07:00;;;;;;;17.27;11.20;;;15.30;40.30;;;;;;5085863;28;20050;-51
2023/04/10 12:09:26;;;;;;;16.00;10.25;;;15.30;41.50;;;;;;5070263;28;20032;-52
2023/04/10 12:11:51;;;;;;;18.85;11.80;;;15.40;40.50;;;;;;5091019;28;20032;-51
2023/04/10 12:14:18;;;;;;;19.48;11.93;;;15.30;40.70;;;;;;5070310;28;20078;-51
2023/04/10 12:16:45;;;;;;;20.33;11.55;;;15.40;40.30;;;;;;5091061;28;20038;-55
2023/04/10 12:19:11;;;;;;;20.08;11.93;;;15.50;40.20;;;;;;5069899;28;20040;-52
2023/04/10 12:21:38;;;;;;;20.35;13.13;;;15.50;42.40;;;;;;5091095;28;20031;-52
2023/04/10 12:24:04;;;;;;;21.55;12.85;;;15.40;42.00;;;;;;5069891;28;20596;-50
2023/04/10 12:26:30;;;;;;;19.02;11.52;;;15.50;44.30;;;;;;5090890;28;20073;-52
2023/04/10 12:28:56;;;;;;;21.15;12.73;;;15.50;43.10;;;;;;5081878;28;20032;-54
2023/04/10 12:31:27;;;;;;;21.63;13.93;;;15.70;44.80;;;;;;5090127;28;20039;-55
2023/04/10 12:33:56;;;;;;;24.75;14.55;;;15.70;44.70;;;;;;5069066;28;20052;-52
2023/04/10 12:36:25;;;;;;;25.70;15.13;;;15.60;44.50;;;;;;5091141;28;20035;-55
2023/04/10 12:38:51;;;;;;;21.52;13.85;;;15.40;43.80;;;;;;5069123;28;20032;-51
2023/04/10 12:41:25;;;;;;;22.75;13.23;;;15.30;45.30;;;;;;5090634;28;20032;-54